sensor_id;sensor_type;location;lat;lon;timestamp;P1;durP1;ratioP1;P2;durP2;ratioP2
51949;SDS011;37974;53.218;6.640;2022-12-31T00:47:24;18.85;;;4.47;;
51949;SDS011;37974;53.218;6.640;2022-12-31T01:02:26;21.50;;;4.85;;
51949;SDS011;37974;53.218;6.640;2022-12-31T01:09:34;23.83;;;4.93;;
51949;SDS011;37974;53.218;6.640;2022-12-31T01:21:34;24.40;;;4.10;;
51949;SDS011;37974;53.218;6.640;2022-12-31T03:07:13;9.98;;;2.58;;
51949;SDS011;37974;53.218;6.640;2022-12-31T03:11:08;9.95;;;2.63;;
51949;SDS011;37974;53.218;6.640;2022-12-31T03:36:32;9.45;;;1.83;;
51949;SDS011;37974;53.218;6.640;2022-12-31T03:44:34;10.02;;;2.00;;
51949;SDS011;37974;53.218;6.640;2022-12-31T03:51:58;8.20;;;1.27;;
51949;SDS011;37974;53.218;6.640;2022-12-31T04:06:36;5.20;;;0.90;;
51949;SDS011;37974;53.218;6.640;2022-12-31T04:13:44;5.63;;;1.20;;
51949;SDS011;37974;53.218;6.640;2022-12-31T04:24:36;7.05;;;1.70;;
51949;SDS011;37974;53.218;6.640;2022-12-31T04:28:02;9.60;;;1.80;;
51949;SDS011;37974;53.218;6.640;2022-12-31T04:31:47;9.57;;;1.70;;
51949;SDS011;37974;53.218;6.640;2022-12-31T04:35:00;8.73;;;2.00;;
51949;SDS011;37974;53.218;6.640;2022-12-31T04:45:38;9.50;;;3.03;;
51949;SDS011;37974;53.218;6.640;2022-12-31T04:48:37;12.18;;;2.80;;
51949;SDS011;37974;53.218;6.640;2022-12-31T04:52:01;8.38;;;2.03;;
51949;SDS011;37974;53.218;6.640;2022-12-31T04:54:51;9.45;;;1.73;;
51949;SDS011;37974;53.218;6.640;2022-12-31T05:01:35;6.47;;;1.30;;
51949;SDS011;37974;53.218;6.640;2022-12-31T05:15:47;6.38;;;1.20;;
51949;SDS011;37974;53.218;6.640;2022-12-31T05:26:08;8.38;;;1.85;;
51949;SDS011;37974;53.218;6.640;2022-12-31T05:49:39;11.68;;;2.92;;
51949;SDS011;37974;53.218;6.640;2022-12-31T06:01:18;11.70;;;3.50;;
51949;SDS011;37974;53.218;6.640;2022-12-31T06:04:51;8.13;;;1.65;;
51949;SDS011;37974;53.218;6.640;2022-12-31T06:11:53;6.30;;;1.60;;
51949;SDS011;37974;53.218;6.640;2022-12-31T06:14:52;9.43;;;1.63;;
51949;SDS011;37974;53.218;6.640;2022-12-31T06:17:53;9.40;;;1.35;;
51949;SDS011;37974;53.218;6.640;2022-12-31T06:20:19;6.22;;;1.17;;
51949;SDS011;37974;53.218;6.640;2022-12-31T06:22:45;8.23;;;1.33;;
51949;SDS011;37974;53.218;6.640;2022-12-31T06:25:13;5.38;;;1.10;;
51949;SDS011;37974;53.218;6.640;2022-12-31T06:27:54;7.72;;;1.63;;
51949;SDS011;37974;53.218;6.640;2022-12-31T06:30:51;5.40;;;1.27;;
51949;SDS011;37974;53.218;6.640;2022-12-31T06:33:48;3.38;;;0.90;;
51949;SDS011;37974;53.218;6.640;2022-12-31T06:36:30;4.97;;;0.70;;
51949;SDS011;37974;53.218;6.640;2022-12-31T06:39:18;5.53;;;0.80;;
51949;SDS011;37974;53.218;6.640;2022-12-31T06:42:18;4.13;;;0.47;;
51949;SDS011;37974;53.218;6.640;2022-12-31T06:45:49;5.07;;;0.80;;
51949;SDS011;37974;53.218;6.640;2022-12-31T06:49:29;8.25;;;0.85;;
51949;SDS011;37974;53.218;6.640;2022-12-31T06:52:25;3.80;;;0.60;;
51949;SDS011;37974;53.218;6.640;2022-12-31T06:55:43;6.40;;;0.68;;
51949;SDS011;37974;53.218;6.640;2022-12-31T07:25:59;7.30;;;3.90;;
51949;SDS011;37974;53.218;6.640;2022-12-31T08:31:20;4.15;;;1.90;;
51949;SDS011;37974;53.218;6.640;2022-12-31T08:34:29;5.50;;;2.10;;
51949;SDS011;37974;53.218;6.640;2022-12-31T08:37:27;5.85;;;2.30;;
51949;SDS011;37974;53.218;6.640;2022-12-31T08:40:21;4.20;;;2.08;;
51949;SDS011;37974;53.218;6.640;2022-12-31T08:46:11;3.45;;;1.58;;
51949;SDS011;37974;53.218;6.640;2022-12-31T08:54:18;3.10;;;1.65;;
51949;SDS011;37974;53.218;6.640;2022-12-31T10:00:03;5.20;;;1.08;;
51949;SDS011;37974;53.218;6.640;2022-12-31T10:03:19;3.75;;;1.10;;
51949;SDS011;37974;53.218;6.640;2022-12-31T12:23:23;7.57;;;1.52;;
51949;SDS011;37974;53.218;6.640;2022-12-31T12:26:24;9.90;;;1.55;;
51949;SDS011;37974;53.218;6.640;2022-12-31T12:28:53;9.68;;;1.80;;
51949;SDS011;37974;53.218;6.640;2022-12-31T12:32:17;13.10;;;2.05;;
51949;SDS011;37974;53.218;6.640;2022-12-31T12:34:54;17.00;;;2.50;;
51949;SDS011;37974;53.218;6.640;2022-12-31T12:38:43;10.32;;;1.90;;
51949;SDS011;37974;53.218;6.640;2022-12-31T12:40:57;13.05;;;1.90;;
51949;SDS011;37974;53.218;6.640;2022-12-31T12:43:43;11.27;;;1.85;;
51949;SDS011;37974;53.218;6.640;2022-12-31T12:47:06;14.30;;;2.08;;
51949;SDS011;37974;53.218;6.640;2022-12-31T12:49:56;11.02;;;2.05;;
51949;SDS011;37974;53.218;6.640;2022-12-31T13:00:35;13.73;;;2.00;;
51949;SDS011;37974;53.218;6.640;2022-12-31T13:14:51;14.45;;;1.98;;
51949;SDS011;37974;53.218;6.640;2022-12-31T13:21:24;11.05;;;2.13;;
51949;SDS011;37974;53.218;6.640;2022-12-31T13:25:04;10.13;;;1.98;;
51949;SDS011;37974;53.218;6.640;2022-12-31T13:32:43;9.93;;;1.63;;
51949;SDS011;37974;53.218;6.640;2022-12-31T13:36:08;11.35;;;1.88;;
51949;SDS011;37974;53.218;6.640;2022-12-31T13:38:46;11.25;;;2.25;;
51949;SDS011;37974;53.218;6.640;2022-12-31T13:41:49;18.13;;;2.13;;
51949;SDS011;37974;53.218;6.640;2022-12-31T13:49:42;9.82;;;1.92;;
51949;SDS011;37974;53.218;6.640;2022-12-31T13:57:41;13.00;;;2.28;;
51949;SDS011;37974;53.218;6.640;2022-12-31T14:00:22;11.68;;;1.77;;
51949;SDS011;37974;53.218;6.640;2022-12-31T14:02:56;9.18;;;1.67;;
51949;SDS011;37974;53.218;6.640;2022-12-31T14:05:25;9.88;;;1.63;;
51949;SDS011;37974;53.218;6.640;2022-12-31T14:07:58;10.60;;;1.45;;
51949;SDS011;37974;53.218;6.640;2022-12-31T14:13:08;10.73;;;1.40;;
51949;SDS011;37974;53.218;6.640;2022-12-31T14:16:10;9.48;;;1.40;;
51949;SDS011;37974;53.218;6.640;2022-12-31T14:19:46;6.55;;;1.02;;
51949;SDS011;37974;53.218;6.640;2022-12-31T14:26:34;8.10;;;1.40;;
51949;SDS011;37974;53.218;6.640;2022-12-31T14:29:26;5.97;;;1.45;;
51949;SDS011;37974;53.218;6.640;2022-12-31T14:38:43;5.80;;;1.95;;
51949;SDS011;37974;53.218;6.640;2022-12-31T14:51:28;5.57;;;0.90;;
51949;SDS011;37974;53.218;6.640;2022-12-31T14:57:35;3.70;;;0.98;;
51949;SDS011;37974;53.218;6.640;2022-12-31T15:00:25;4.25;;;1.20;;
51949;SDS011;37974;53.218;6.640;2022-12-31T15:03:44;6.05;;;1.35;;
51949;SDS011;37974;53.218;6.640;2022-12-31T15:06:32;4.82;;;1.60;;
51949;SDS011;37974;53.218;6.640;2022-12-31T15:10:05;4.70;;;1.57;;
51949;SDS011;37974;53.218;6.640;2022-12-31T15:13:30;3.47;;;0.90;;
51949;SDS011;37974;53.218;6.640;2022-12-31T15:23:48;0.90;;;0.45;;
51949;SDS011;37974;53.218;6.640;2022-12-31T16:06:29;6.75;;;2.10;;
51949;SDS011;37974;53.218;6.640;2022-12-31T16:09:59;4.25;;;1.95;;
51949;SDS011;37974;53.218;6.640;2022-12-31T16:25:16;9.23;;;2.25;;
51949;SDS011;37974;53.218;6.640;2022-12-31T16:56:01;11.52;;;4.55;;
51949;SDS011;37974;53.218;6.640;2022-12-31T16:58:36;13.70;;;4.20;;
51949;SDS011;37974;53.218;6.640;2022-12-31T17:01:15;12.98;;;4.72;;
51949;SDS011;37974;53.218;6.640;2022-12-31T17:04:13;18.45;;;4.70;;
51949;SDS011;37974;53.218;6.640;2022-12-31T17:13:51;14.43;;;4.95;;
51949;SDS011;37974;53.218;6.640;2022-12-31T17:20:29;19.50;;;5.03;;
51949;SDS011;37974;53.218;6.640;2022-12-31T17:26:35;14.30;;;5.50;;
51949;SDS011;37974;53.218;6.640;2022-12-31T17:29:29;18.52;;;5.68;;
51949;SDS011;37974;53.218;6.640;2022-12-31T17:35:53;17.80;;;4.50;;
51949;SDS011;37974;53.218;6.640;2022-12-31T17:39:20;12.38;;;5.40;;
51949;SDS011;37974;53.218;6.640;2022-12-31T17:56:18;19.90;;;5.43;;
51949;SDS011;37974;53.218;6.640;2022-12-31T17:59:54;16.63;;;5.57;;
51949;SDS011;37974;53.218;6.640;2022-12-31T18:02:26;22.52;;;6.53;;
51949;SDS011;37974;53.218;6.640;2022-12-31T18:04:54;16.42;;;6.93;;
51949;SDS011;37974;53.218;6.640;2022-12-31T18:07:26;22.33;;;7.60;;
51949;SDS011;37974;53.218;6.640;2022-12-31T18:09:57;17.20;;;7.07;;
51949;SDS011;37974;53.218;6.640;2022-12-31T18:12:26;19.45;;;8.60;;
51949;SDS011;37974;53.218;6.640;2022-12-31T18:14:52;22.75;;;8.50;;
51949;SDS011;37974;53.218;6.640;2022-12-31T18:17:18;25.60;;;9.50;;
51949;SDS011;37974;53.218;6.640;2022-12-31T18:19:43;22.73;;;8.95;;
51949;SDS011;37974;53.218;6.640;2022-12-31T18:22:12;21.05;;;9.13;;
51949;SDS011;37974;53.218;6.640;2022-12-31T18:24:40;19.77;;;8.23;;
51949;SDS011;37974;53.218;6.640;2022-12-31T18:27:16;21.08;;;9.10;;
51949;SDS011;37974;53.218;6.640;2022-12-31T18:32:46;18.08;;;8.23;;
51949;SDS011;37974;53.218;6.640;2022-12-31T18:35:16;20.25;;;9.43;;
51949;SDS011;37974;53.218;6.640;2022-12-31T18:37:58;23.40;;;8.90;;
51949;SDS011;37974;53.218;6.640;2022-12-31T18:40:51;22.27;;;8.73;;
51949;SDS011;37974;53.218;6.640;2022-12-31T18:43:50;25.98;;;9.48;;
51949;SDS011;37974;53.218;6.640;2022-12-31T18:46:22;23.55;;;9.32;;
51949;SDS011;37974;53.218;6.640;2022-12-31T18:48:49;25.85;;;10.02;;
51949;SDS011;37974;53.218;6.640;2022-12-31T18:51:18;22.58;;;9.23;;
51949;SDS011;37974;53.218;6.640;2022-12-31T18:54:01;19.75;;;9.32;;
51949;SDS011;37974;53.218;6.640;2022-12-31T18:56:34;25.38;;;9.15;;
51949;SDS011;37974;53.218;6.640;2022-12-31T18:59:40;25.17;;;8.93;;
51949;SDS011;37974;53.218;6.640;2022-12-31T19:02:42;20.40;;;8.30;;
51949;SDS011;37974;53.218;6.640;2022-12-31T19:05:33;20.55;;;8.13;;
51949;SDS011;37974;53.218;6.640;2022-12-31T19:09:02;21.77;;;8.63;;
51949;SDS011;37974;53.218;6.640;2022-12-31T19:11:57;20.27;;;9.55;;
51949;SDS011;37974;53.218;6.640;2022-12-31T19:14:27;20.30;;;8.65;;
51949;SDS011;37974;53.218;6.640;2022-12-31T19:16:55;27.38;;;8.48;;
51949;SDS011;37974;53.218;6.640;2022-12-31T19:19:37;25.88;;;9.48;;
51949;SDS011;37974;53.218;6.640;2022-12-31T19:22:05;24.83;;;9.40;;
51949;SDS011;37974;53.218;6.640;2022-12-31T19:25:00;22.40;;;8.30;;
51949;SDS011;37974;53.218;6.640;2022-12-31T19:27:39;21.70;;;8.52;;
51949;SDS011;37974;53.218;6.640;2022-12-31T19:30:05;16.75;;;7.60;;
51949;SDS011;37974;53.218;6.640;2022-12-31T19:32:35;20.88;;;8.23;;
51949;SDS011;37974;53.218;6.640;2022-12-31T19:35:00;22.45;;;7.82;;
51949;SDS011;37974;53.218;6.640;2022-12-31T19:37:26;23.00;;;8.57;;
51949;SDS011;37974;53.218;6.640;2022-12-31T19:39:52;18.17;;;7.20;;
51949;SDS011;37974;53.218;6.640;2022-12-31T19:42:18;16.60;;;7.18;;
51949;SDS011;37974;53.218;6.640;2022-12-31T19:44:43;20.15;;;7.97;;
51949;SDS011;37974;53.218;6.640;2022-12-31T19:47:10;18.05;;;6.88;;
51949;SDS011;37974;53.218;6.640;2022-12-31T19:49:37;25.95;;;7.22;;
51949;SDS011;37974;53.218;6.640;2022-12-31T19:52:03;16.73;;;6.50;;
51949;SDS011;37974;53.218;6.640;2022-12-31T19:54:32;21.73;;;6.30;;
51949;SDS011;37974;53.218;6.640;2022-12-31T19:56:57;15.90;;;6.30;;
51949;SDS011;37974;53.218;6.640;2022-12-31T19:59:26;17.05;;;5.88;;
51949;SDS011;37974;53.218;6.640;2022-12-31T20:01:52;12.27;;;5.65;;
51949;SDS011;37974;53.218;6.640;2022-12-31T20:04:17;17.27;;;5.93;;
51949;SDS011;37974;53.218;6.640;2022-12-31T20:06:45;18.67;;;6.13;;
51949;SDS011;37974;53.218;6.640;2022-12-31T20:09:11;15.57;;;5.78;;
51949;SDS011;37974;53.218;6.640;2022-12-31T20:11:37;14.88;;;5.90;;
51949;SDS011;37974;53.218;6.640;2022-12-31T20:14:03;16.50;;;6.38;;
51949;SDS011;37974;53.218;6.640;2022-12-31T20:16:28;16.85;;;6.07;;
51949;SDS011;37974;53.218;6.640;2022-12-31T20:18:55;14.55;;;5.80;;
51949;SDS011;37974;53.218;6.640;2022-12-31T20:21:22;17.70;;;6.45;;
51949;SDS011;37974;53.218;6.640;2022-12-31T20:23:50;17.40;;;5.47;;
51949;SDS011;37974;53.218;6.640;2022-12-31T20:26:17;16.55;;;5.28;;
51949;SDS011;37974;53.218;6.640;2022-12-31T20:28:44;19.33;;;5.85;;
51949;SDS011;37974;53.218;6.640;2022-12-31T20:31:11;20.35;;;5.82;;
51949;SDS011;37974;53.218;6.640;2022-12-31T20:33:38;18.85;;;5.80;;
51949;SDS011;37974;53.218;6.640;2022-12-31T20:36:05;20.00;;;6.38;;
51949;SDS011;37974;53.218;6.640;2022-12-31T20:38:32;16.55;;;5.82;;
51949;SDS011;37974;53.218;6.640;2022-12-31T20:41:03;18.13;;;6.20;;
51949;SDS011;37974;53.218;6.640;2022-12-31T20:43:31;18.77;;;5.65;;
51949;SDS011;37974;53.218;6.640;2022-12-31T20:46:03;19.00;;;5.82;;
51949;SDS011;37974;53.218;6.640;2022-12-31T20:48:31;19.70;;;5.88;;
51949;SDS011;37974;53.218;6.640;2022-12-31T20:51:01;18.40;;;6.10;;
51949;SDS011;37974;53.218;6.640;2022-12-31T20:53:27;18.60;;;5.55;;
51949;SDS011;37974;53.218;6.640;2022-12-31T20:55:55;21.85;;;5.85;;
51949;SDS011;37974;53.218;6.640;2022-12-31T20:58:21;17.75;;;5.10;;
51949;SDS011;37974;53.218;6.640;2022-12-31T21:00:47;17.35;;;4.95;;
51949;SDS011;37974;53.218;6.640;2022-12-31T21:03:14;16.58;;;5.80;;
51949;SDS011;37974;53.218;6.640;2022-12-31T21:05:47;22.75;;;5.45;;
51949;SDS011;37974;53.218;6.640;2022-12-31T21:08:14;11.53;;;4.27;;
51949;SDS011;37974;53.218;6.640;2022-12-31T21:10:40;18.15;;;4.50;;
51949;SDS011;37974;53.218;6.640;2022-12-31T21:13:06;17.33;;;5.13;;
51949;SDS011;37974;53.218;6.640;2022-12-31T21:15:34;20.15;;;5.22;;
51949;SDS011;37974;53.218;6.640;2022-12-31T21:18:00;12.48;;;4.75;;
51949;SDS011;37974;53.218;6.640;2022-12-31T21:20:26;18.23;;;4.75;;
51949;SDS011;37974;53.218;6.640;2022-12-31T21:22:52;17.27;;;4.30;;
51949;SDS011;37974;53.218;6.640;2022-12-31T21:25:17;19.08;;;4.55;;
51949;SDS011;37974;53.218;6.640;2022-12-31T21:27:43;13.18;;;5.22;;
51949;SDS011;37974;53.218;6.640;2022-12-31T21:30:10;16.77;;;4.35;;
51949;SDS011;37974;53.218;6.640;2022-12-31T21:32:36;14.75;;;4.95;;
51949;SDS011;37974;53.218;6.640;2022-12-31T21:35:02;21.73;;;5.40;;
51949;SDS011;37974;53.218;6.640;2022-12-31T21:37:28;15.27;;;7.15;;
51949;SDS011;37974;53.218;6.640;2022-12-31T21:39:54;16.73;;;5.10;;
51949;SDS011;37974;53.218;6.640;2022-12-31T21:42:20;14.75;;;4.60;;
51949;SDS011;37974;53.218;6.640;2022-12-31T21:44:46;19.88;;;5.00;;
51949;SDS011;37974;53.218;6.640;2022-12-31T21:47:14;18.05;;;5.32;;
51949;SDS011;37974;53.218;6.640;2022-12-31T21:49:58;18.88;;;4.65;;
51949;SDS011;37974;53.218;6.640;2022-12-31T21:52:24;17.45;;;4.57;;
51949;SDS011;37974;53.218;6.640;2022-12-31T21:54:50;19.70;;;4.72;;
51949;SDS011;37974;53.218;6.640;2022-12-31T21:57:36;19.70;;;4.68;;
51949;SDS011;37974;53.218;6.640;2022-12-31T22:00:02;21.08;;;5.18;;
51949;SDS011;37974;53.218;6.640;2022-12-31T22:02:47;18.17;;;4.55;;
51949;SDS011;37974;53.218;6.640;2022-12-31T22:05:31;15.32;;;4.90;;
51949;SDS011;37974;53.218;6.640;2022-12-31T22:07:57;18.13;;;4.97;;
51949;SDS011;37974;53.218;6.640;2022-12-31T22:10:23;21.00;;;4.80;;
51949;SDS011;37974;53.218;6.640;2022-12-31T22:12:49;25.48;;;6.22;;
51949;SDS011;37974;53.218;6.640;2022-12-31T22:15:14;13.95;;;5.00;;
51949;SDS011;37974;53.218;6.640;2022-12-31T22:17:40;20.65;;;5.43;;
51949;SDS011;37974;53.218;6.640;2022-12-31T22:20:06;19.95;;;5.38;;
51949;SDS011;37974;53.218;6.640;2022-12-31T22:22:32;17.67;;;5.50;;
51949;SDS011;37974;53.218;6.640;2022-12-31T22:24:58;18.20;;;4.80;;
51949;SDS011;37974;53.218;6.640;2022-12-31T22:27:24;19.02;;;5.22;;
51949;SDS011;37974;53.218;6.640;2022-12-31T22:29:49;19.83;;;5.10;;
51949;SDS011;37974;53.218;6.640;2022-12-31T22:32:15;16.98;;;5.65;;
51949;SDS011;37974;53.218;6.640;2022-12-31T22:34:41;25.27;;;5.63;;
51949;SDS011;37974;53.218;6.640;2022-12-31T22:37:06;23.05;;;4.63;;
51949;SDS011;37974;53.218;6.640;2022-12-31T22:39:32;17.70;;;5.20;;
51949;SDS011;37974;53.218;6.640;2022-12-31T22:41:58;19.60;;;5.70;;
51949;SDS011;37974;53.218;6.640;2022-12-31T22:44:23;16.83;;;5.15;;
51949;SDS011;37974;53.218;6.640;2022-12-31T22:46:49;15.65;;;4.60;;
51949;SDS011;37974;53.218;6.640;2022-12-31T22:49:15;21.35;;;5.13;;
51949;SDS011;37974;53.218;6.640;2022-12-31T22:51:41;19.05;;;4.72;;
51949;SDS011;37974;53.218;6.640;2022-12-31T22:54:09;16.35;;;4.88;;
51949;SDS011;37974;53.218;6.640;2022-12-31T22:56:34;14.15;;;4.20;;
51949;SDS011;37974;53.218;6.640;2022-12-31T22:59:00;20.95;;;4.82;;
51949;SDS011;37974;53.218;6.640;2022-12-31T23:01:26;18.88;;;5.78;;
51949;SDS011;37974;53.218;6.640;2022-12-31T23:03:52;17.58;;;5.00;;
51949;SDS011;37974;53.218;6.640;2022-12-31T23:06:19;21.08;;;5.32;;
51949;SDS011;37974;53.218;6.640;2022-12-31T23:08:46;21.70;;;6.20;;
51949;SDS011;37974;53.218;6.640;2022-12-31T23:11:50;19.63;;;7.07;;
51949;SDS011;37974;53.218;6.640;2022-12-31T23:14:15;20.75;;;9.82;;
51949;SDS011;37974;53.218;6.640;2022-12-31T23:17:00;43.00;;;20.80;;
51949;SDS011;37974;53.218;6.640;2022-12-31T23:19:44;29.98;;;12.40;;
51949;SDS011;37974;53.218;6.640;2022-12-31T23:22:28;25.17;;;8.23;;
51949;SDS011;37974;53.218;6.640;2022-12-31T23:25:12;24.15;;;7.95;;
51949;SDS011;37974;53.218;6.640;2022-12-31T23:27:38;18.48;;;7.57;;
51949;SDS011;37974;53.218;6.640;2022-12-31T23:30:04;21.35;;;8.43;;
51949;SDS011;37974;53.218;6.640;2022-12-31T23:32:30;22.10;;;9.32;;
51949;SDS011;37974;53.218;6.640;2022-12-31T23:34:55;24.08;;;8.02;;
51949;SDS011;37974;53.218;6.640;2022-12-31T23:37:21;21.63;;;7.20;;
51949;SDS011;37974;53.218;6.640;2022-12-31T23:39:47;20.95;;;8.52;;
51949;SDS011;37974;53.218;6.640;2022-12-31T23:42:13;21.58;;;7.70;;
51949;SDS011;37974;53.218;6.640;2022-12-31T23:44:38;17.42;;;6.88;;
51949;SDS011;37974;53.218;6.640;2022-12-31T23:47:04;23.63;;;7.32;;
51949;SDS011;37974;53.218;6.640;2022-12-31T23:49:30;19.25;;;7.82;;
51949;SDS011;37974;53.218;6.640;2022-12-31T23:51:55;23.60;;;8.13;;
51949;SDS011;37974;53.218;6.640;2022-12-31T23:54:24;23.48;;;7.95;;
51949;SDS011;37974;53.218;6.640;2022-12-31T23:56:49;30.02;;;8.23;;
51949;SDS011;37974;53.218;6.640;2022-12-31T23:59:15;23.90;;;9.02;;
